Time;durP1;ratioP1;P1;durP2;ratioP2;P2;SDS_P1;SDS_P2;PMS_P1;PMS_P2;Temp;Humidity;BMP_temperature;BMP_pressure;BME280_temperature;BME280_humidity;BME280_pressure;Samples;Min_cycle;Max_cycle;Signal;HPM_P1;HPM_P2
2023/04/26 00:00:19;;;;;;;8.40;1.65;;;;;;;2.49;100.00;100676.25;6117948;28;20473;-90
2023/04/26 00:03:22;;;;;;;6.93;2.08;;;;;;;2.43;100.00;100681.63;6122733;28;20518;-90
2023/04/26 00:06:26;;;;;;;6.35;1.70;;;;;;;2.35;100.00;100682.78;6114536;28;20063;-90
2023/04/26 00:09:28;;;;;;;9.80;2.25;;;;;;;2.32;100.00;100682.91;6101775;29;20516;-90
2023/04/26 00:12:30;;;;;;;4.88;2.20;;;;;;;2.26;100.00;100675.53;6122254;28;20525;-90
2023/04/26 00:15:32;;;;;;;7.53;2.00;;;;;;;2.28;100.00;100681.38;6114808;28;20122;-90
2023/04/26 00:18:34;;;;;;;6.70;2.38;;;;;;;2.23;100.00;100679.91;6123899;28;20561;-90
2023/04/26 00:21:36;;;;;;;4.97;2.88;;;;;;;2.26;100.00;100682.31;6117645;28;20058;-90
2023/04/26 00:24:38;;;;;;;9.05;2.00;;;;;;;2.32;100.00;100680.34;6099301;28;20138;-90
2023/04/26 00:27:39;;;;;;;8.07;2.10;;;;;;;2.30;100.00;100681.31;6117139;28;20059;-90
2023/04/26 00:30:47;;;;;;;7.03;1.63;;;;;;;2.34;100.00;100673.47;6121168;28;20168;-91
2023/04/26 00:33:50;;;;;;;5.93;2.53;;;;;;;2.43;100.00;100671.41;6102491;29;20516;-90
2023/04/26 00:36:52;;;;;;;5.85;1.77;;;;;;;2.51;100.00;100677.00;6118052;28;20056;-90
2023/04/26 00:39:56;;;;;;;8.85;2.15;;;;;;;2.52;100.00;100676.94;6120962;28;20048;-90
2023/04/26 00:42:58;;;;;;;6.90;1.70;;;;;;;2.52;100.00;100674.41;6113814;28;20051;-89
2023/04/26 00:46:00;;;;;;;6.85;1.48;;;;;;;2.53;100.00;100678.59;6131631;28;20051;-90
2023/04/26 00:49:02;;;;;;;5.28;2.03;;;;;;;2.50;100.00;100683.84;6112175;29;20047;-90
2023/04/26 00:52:04;;;;;;;7.30;1.92;;;;;;;2.43;100.00;100679.06;6118063;28;20572;-90
2023/04/26 00:55:07;;;;;;;7.28;1.70;;;;;;;2.47;100.00;100688.28;6107337;29;20043;-90
2023/04/26 00:58:10;;;;;;;6.95;1.90;;;;;;;2.47;100.00;100678.06;6120015;28;20055;-90
2023/04/26 01:01:12;;;;;;;6.63;1.90;;;;;;;2.51;100.00;100674.44;6134126;28;20043;-90
2023/04/26 01:04:15;;;;;;;6.00;2.05;;;;;;;2.45;100.00;100684.94;6138565;28;20133;-90
2023/04/26 01:07:17;;;;;;;4.70;1.83;;;;;;;2.42;100.00;100679.97;6131652;28;20426;-90
2023/04/26 01:10:19;;;;;;;9.43;2.35;;;;;;;2.34;100.00;100683.69;6123129;28;20047;-90
2023/04/26 01:13:21;;;;;;;7.00;1.73;;;;;;;2.33;100.00;100687.09;6136255;28;20137;-90
2023/04/26 01:16:23;;;;;;;4.43;1.95;;;;;;;2.30;100.00;100694.91;6136690;28;20114;-90
2023/04/26 01:19:25;;;;;;;7.15;2.22;;;;;;;2.33;100.00;100693.94;6122943;28;20055;-89
2023/04/26 01:22:31;;;;;;;8.02;2.30;;;;;;;2.42;100.00;100693.56;6115667;28;20138;-90
2023/04/26 01:25:33;;;;;;;5.38;1.80;;;;;;;2.45;100.00;100690.06;6112944;29;20044;-90
2023/04/26 01:28:35;;;;;;;8.40;2.30;;;;;;;2.41;100.00;100686.81;6129911;28;20052;-90
2023/04/26 01:31:38;;;;;;;6.57;2.17;;;;;;;2.22;100.00;100691.84;6119158;28;20071;-89
2023/04/26 01:34:40;;;;;;;7.25;2.20;;;;;;;2.39;100.00;100703.94;6129162;28;20071;-90
2023/04/26 01:37:44;;;;;;;4.07;2.30;;;;;;;2.32;100.00;100703.34;6116433;28;20078;-90
2023/04/26 01:40:46;;;;;;;4.38;1.65;;;;;;;2.29;100.00;100700.91;6121711;28;20054;-91
2023/04/26 01:43:48;;;;;;;8.05;1.90;;;;;;;2.30;100.00;100701.75;6137913;28;20047;-90
2023/04/26 01:46:50;;;;;;;6.75;1.98;;;;;;;2.25;100.00;100704.50;6099503;28;20421;-91
2023/04/26 01:49:52;;;;;;;11.40;2.35;;;;;;;2.28;100.00;100699.25;6130966;28;20083;-90
2023/04/26 01:52:54;;;;;;;5.32;2.00;;;;;;;2.15;100.00;100701.47;6141698;28;20039;-90
2023/04/26 01:56:00;;;;;;;9.52;2.28;;;;;;;2.23;100.00;100706.28;6131342;28;20427;-90
2023/04/26 01:59:02;;;;;;;5.53;2.22;;;;;;;2.18;100.00;100697.16;6118421;29;20463;-90
2023/04/26 02:02:04;;;;;;;9.60;2.50;;;;;;;2.10;100.00;100700.84;6106339;29;20090;-89
2023/04/26 02:05:09;;;;;;;11.60;2.95;;;;;;;2.16;100.00;100694.66;6116353;28;20187;-89
2023/04/26 02:08:12;;;;;;;5.93;1.92;;;;;;;2.14;100.00;100694.72;6105815;28;20540;-90
2023/04/26 02:11:14;;;;;;;7.45;2.22;;;;;;;2.11;100.00;100689.75;6119273;28;20118;-90
2023/04/26 02:14:16;;;;;;;7.32;2.33;;;;;;;2.20;100.00;100692.81;6131266;28;20571;-90
2023/04/26 02:17:20;;;;;;;5.13;2.25;;;;;;;2.19;100.00;100699.66;6122456;28;20054;-90
2023/04/26 02:20:22;;;;;;;7.60;2.35;;;;;;;2.17;100.00;100698.06;6122562;28;20433;-89
2023/04/26 02:23:24;;;;;;;10.32;2.53;;;;;;;2.11;100.00;100699.13;6122076;28;20055;-89
2023/04/26 02:26:25;;;;;;;9.52;2.00;;;;;;;2.12;100.00;100701.63;6140498;28;20078;-89
2023/04/26 02:29:27;;;;;;;9.57;2.35;;;;;;;2.06;100.00;100694.22;6103155;29;20084;-90
2023/04/26 02:32:44;;;;;;;8.00;2.20;;;;;;;2.01;100.00;100697.84;6112981;28;20044;-90
2023/04/26 02:35:47;;;;;;;6.70;2.88;;;;;;;2.08;100.00;100692.41;6138186;28;20395;-90
2023/04/26 02:38:51;;;;;;;8.10;2.30;;;;;;;1.99;100.00;100700.47;6121085;28;20039;-89
2023/04/26 02:41:56;;;;;;;8.00;2.15;;;;;;;1.90;100.00;100688.88;6138586;28;20047;-89
2023/04/26 02:45:00;;;;;;;5.78;2.35;;;;;;;1.92;100.00;100702.44;6125623;28;20047;-90
2023/04/26 02:48:02;;;;;;;8.57;2.15;;;;;;;1.99;100.00;100702.16;6110871;28;20206;-90
2023/04/26 02:51:05;;;;;;;7.22;2.45;;;;;;;1.92;100.00;100692.22;6113593;28;20430;-90
2023/04/26 02:54:07;;;;;;;9.77;3.63;;;;;;;1.87;100.00;100706.06;6115785;28;20569;-89
2023/04/26 02:57:09;;;;;;;4.55;2.22;;;;;;;1.85;100.00;100693.34;6114642;28;20074;-89
2023/04/26 03:00:12;;;;;;;7.50;2.25;;;;;;;1.74;100.00;100703.16;6128824;28;20050;-90
2023/04/26 03:03:15;;;;;;;11.15;2.53;;;;;;;1.72;100.00;100694.75;6103428;29;20044;-89
2023/04/26 03:06:19;;;;;;;10.82;2.72;;;;;;;1.68;100.00;100699.13;6118848;28;20050;-89
2023/04/26 03:09:21;;;;;;;10.65;3.17;;;;;;;1.59;100.00;100702.06;6112583;29;20464;-90
2023/04/26 03:12:24;;;;;;;9.52;2.47;;;;;;;1.60;100.00;100700.31;6137079;28;20058;-90
2023/04/26 03:15:25;;;;;;;6.45;2.38;;;;;;;1.60;100.00;100703.69;6131962;28;20079;-90
2023/04/26 03:18:27;;;;;;;7.35;2.28;;;;;;;1.58;100.00;100710.56;6125349;28;20070;-89
2023/04/26 03:21:30;;;;;;;13.60;2.97;;;;;;;1.65;100.00;100703.53;6122463;28;20534;-90
2023/04/26 03:24:33;;;;;;;4.78;2.03;;;;;;;1.61;100.00;100704.53;6106371;28;20054;-90
2023/04/26 03:27:34;;;;;;;5.05;2.10;;;;;;;1.58;100.00;100704.66;6113814;28;20060;-89
2023/04/26 03:30:37;;;;;;;11.90;2.65;;;;;;;1.68;100.00;100704.22;6106739;28;20160;-90
2023/04/26 03:33:39;;;;;;;7.95;2.58;;;;;;;1.74;100.00;100700.63;6137405;28;20067;-89
2023/04/26 03:36:41;;;;;;;6.45;2.40;;;;;;;1.77;100.00;100694.56;6126030;28;20055;-89
2023/04/26 03:39:43;;;;;;;11.88;2.53;;;;;;;1.71;100.00;100695.63;6130107;28;20070;-89
2023/04/26 03:42:45;;;;;;;8.27;3.05;;;;;;;1.63;100.00;100700.19;6110720;28;20513;-90
2023/04/26 03:45:50;;;;;;;9.40;2.38;;;;;;;1.66;100.00;100700.06;6116459;28;20086;-90
2023/04/26 03:48:51;;;;;;;10.48;3.30;;;;;;;1.76;100.00;100703.91;6117219;28;20042;-90
2023/04/26 03:51:54;;;;;;;8.05;2.38;;;;;;;1.69;100.00;100710.16;6112390;28;20050;-89
2023/04/26 03:54:56;;;;;;;10.00;2.65;;;;;;;1.67;100.00;100706.84;6115136;28;20051;-89
2023/04/26 03:57:57;;;;;;;7.80;2.35;;;;;;;1.58;100.00;100704.66;6129615;28;20505;-90
2023/04/26 04:01:00;;;;;;;9.10;2.42;;;;;;;1.65;100.00;100709.44;6114395;28;20073;-90
2023/04/26 04:04:02;;;;;;;5.63;2.22;;;;;;;1.78;100.00;100702.13;6115446;28;20909;-90
2023/04/26 04:07:05;;;;;;;7.32;2.65;;;;;;;1.87;100.00;100708.63;6115725;28;20525;-89
2023/04/26 04:10:09;;;;;;;8.38;2.20;;;;;;;1.91;100.00;100708.44;6125750;28;20047;-89
2023/04/26 04:13:14;;;;;;;6.90;2.28;;;;;;;1.94;100.00;100700.66;6118694;28;20423;-90
2023/04/26 04:16:16;;;;;;;11.60;3.38;;;;;;;2.05;100.00;100704.47;6105750;28;20055;-89
2023/04/26 04:19:18;;;;;;;8.85;2.70;;;;;;;2.10;100.00;100707.69;6131133;28;20415;-90
2023/04/26 04:22:21;;;;;;;7.65;2.40;;;;;;;2.24;100.00;100700.28;6134879;28;20074;-89
2023/04/26 04:25:24;;;;;;;8.50;2.10;;;;;;;2.34;100.00;100704.13;6122366;28;20051;-89
2023/04/26 04:28:28;;;;;;;8.88;2.10;;;;;;;2.35;100.00;100710.88;6123923;28;20043;-89
2023/04/26 04:31:30;;;;;;;8.05;2.38;;;;;;;2.51;100.00;100716.19;6118391;28;20051;-89
2023/04/26 04:34:34;;;;;;;8.35;2.92;;;;;;;2.59;100.00;100715.84;6114322;28;20080;-89
2023/04/26 04:37:37;;;;;;;7.28;2.50;;;;;;;2.62;100.00;100718.28;6135791;28;20645;-89
2023/04/26 04:40:40;;;;;;;5.82;2.35;;;;;;;2.66;100.00;100707.03;6138629;28;20039;-89
2023/04/26 04:43:41;;;;;;;10.18;2.60;;;;;;;2.75;100.00;100719.38;6122473;28;20050;-89
2023/04/26 04:46:43;;;;;;;4.80;2.03;;;;;;;2.84;100.00;100719.91;6116058;28;20057;-89
2023/04/26 04:49:46;;;;;;;7.03;2.50;;;;;;;2.75;100.00;100721.13;6137390;28;20058;-89
2023/04/26 04:52:48;;;;;;;10.65;2.50;;;;;;;2.72;100.00;100721.25;6141441;28;20047;-89
2023/04/26 04:55:50;;;;;;;6.95;2.80;;;;;;;2.67;100.00;100716.34;6109112;28;20047;-89
2023/04/26 04:58:52;;;;;;;7.15;2.60;;;;;;;2.61;100.00;100719.19;6116226;28;20097;-89
2023/04/26 05:01:56;;;;;;;8.30;2.60;;;;;;;2.57;100.00;100730.41;6116064;28;20058;-89
2023/04/26 05:05:00;;;;;;;7.20;2.13;;;;;;;2.58;100.00;100727.81;6121971;28;20063;-89
2023/04/26 05:08:02;;;;;;;10.45;2.58;;;;;;;2.53;100.00;100727.16;6132249;28;20391;-89
2023/04/26 05:11:04;;;;;;;6.88;2.78;;;;;;;2.44;100.00;100729.28;6132474;28;20066;-89
2023/04/26 05:14:06;;;;;;;7.07;2.22;;;;;;;2.39;100.00;100733.75;6130957;28;20055;-89
2023/04/26 05:17:08;;;;;;;6.03;2.67;;;;;;;2.38;100.00;100735.44;6137347;28;20134;-90
2023/04/26 05:20:10;;;;;;;8.73;2.30;;;;;;;2.44;100.00;100730.09;6111122;28;20047;-89
2023/04/26 05:23:12;;;;;;;8.15;3.75;;;;;;;2.49;100.00;100747.81;6106965;28;20092;-89
2023/04/26 05:26:15;;;;;;;8.90;2.60;;;;;;;2.61;100.00;100738.75;6117263;28;20130;-89
2023/04/26 05:29:30;;;;;;;6.85;2.13;;;;;;;2.66;100.00;100742.81;6115848;28;20082;-89
2023/04/26 05:32:51;;;;;;;7.95;2.58;;;;;;;2.70;100.00;100740.94;6124750;28;20514;-89
2023/04/26 05:36:11;;;;;;;6.63;2.20;;;;;;;2.75;100.00;100747.50;6123002;28;20426;-89
2023/04/26 05:39:13;;;;;;;7.43;2.60;;;;;;;2.82;100.00;100747.25;6116391;28;20046;-89
2023/04/26 05:42:15;;;;;;;7.85;2.80;;;;;;;2.97;100.00;100749.16;6105835;28;20138;-89
2023/04/26 05:45:19;;;;;;;9.60;2.55;;;;;;;2.99;100.00;100747.34;6115227;28;20039;-90
2023/04/26 05:48:22;;;;;;;6.00;2.40;;;;;;;3.00;100.00;100752.38;6137869;28;20047;-89
2023/04/26 05:51:24;;;;;;;4.97;2.35;;;;;;;3.09;100.00;100752.91;6131799;28;20052;-89
2023/04/26 05:54:26;;;;;;;8.77;2.30;;;;;;;3.22;100.00;100756.56;6124705;29;20081;-89
2023/04/26 05:57:29;;;;;;;10.25;2.70;;;;;;;3.29;100.00;100752.00;6140359;28;20521;-90
2023/04/26 06:00:31;;;;;;;7.75;2.42;;;;;;;3.28;100.00;100752.88;6119503;28;20058;-90
2023/04/26 06:03:33;;;;;;;10.80;2.40;;;;;;;3.35;100.00;100757.66;6117232;29;20054;-88
2023/04/26 06:06:36;;;;;;;9.57;2.85;;;;;;;3.39;100.00;100756.63;6126594;28;20047;-90
2023/04/26 06:09:38;;;;;;;8.75;2.63;;;;;;;3.54;100.00;100754.28;6130073;28;20059;-89
2023/04/26 06:12:40;;;;;;;8.98;2.42;;;;;;;3.59;100.00;100760.84;6140529;28;20179;-89
2023/04/26 06:15:42;;;;;;;5.72;2.38;;;;;;;3.62;100.00;100762.44;6119230;28;20040;-89
2023/04/26 06:18:44;;;;;;;6.85;2.35;;;;;;;3.67;100.00;100758.75;6113614;28;20058;-90
2023/04/26 06:21:47;;;;;;;4.72;2.13;;;;;;;3.86;100.00;100763.84;6115888;28;20059;-89
2023/04/26 06:24:49;;;;;;;9.98;2.53;;;;;;;4.24;100.00;100766.28;6131134;28;20111;-89
2023/04/26 06:27:51;;;;;;;10.57;3.58;;;;;;;4.64;100.00;100766.88;6113648;28;20058;-90
2023/04/26 06:30:53;;;;;;;5.28;2.88;;;;;;;4.96;100.00;100767.81;6133746;28;20050;-90
2023/04/26 06:33:55;;;;;;;5.97;2.00;;;;;;;5.10;100.00;100779.09;6132294;28;20047;-90
2023/04/26 06:36:56;;;;;;;7.47;2.08;;;;;;;5.07;100.00;100776.69;6113997;28;20075;-90
2023/04/26 06:40:00;;;;;;;6.75;2.20;;;;;;;5.12;100.00;100775.56;6121065;28;20051;-90
2023/04/26 06:43:02;;;;;;;6.32;2.35;;;;;;;5.09;100.00;100775.72;6122550;28;20520;-90
2023/04/26 06:46:19;;;;;;;4.68;2.83;;;;;;;4.96;100.00;100775.50;6125530;28;20058;-90
2023/04/26 06:49:26;;;;;;;5.57;2.10;;;;;;;4.99;100.00;100778.81;6132414;28;20709;-90
2023/04/26 06:52:28;;;;;;;7.00;2.55;;;;;;;5.09;100.00;100783.41;6133471;28;20134;-91
2023/04/26 06:55:30;;;;;;;8.02;2.45;;;;;;;5.24;100.00;100780.94;6133169;28;20043;-90
2023/04/26 06:58:34;;;;;;;8.10;2.40;;;;;;;5.31;100.00;100785.66;6117430;28;20359;-89
2023/04/26 07:01:36;;;;;;;6.35;2.80;;;;;;;5.50;100.00;100792.41;6135152;28;20125;-90
2023/04/26 07:04:37;;;;;;;7.13;2.20;;;;;;;5.61;100.00;100793.50;6123994;28;20035;-90
2023/04/26 07:07:40;;;;;;;7.30;2.60;;;;;;;5.65;100.00;100799.28;6135100;28;20043;-92
2023/04/26 07:10:42;;;;;;;5.32;2.08;;;;;;;5.62;100.00;100784.03;6115317;28;20054;-91
2023/04/26 07:13:44;;;;;;;3.95;2.17;;;;;;;5.54;100.00;100791.31;6129666;28;20054;-91
2023/04/26 07:16:46;;;;;;;7.65;2.42;;;;;;;5.36;100.00;100793.94;6137854;28;20638;-92
2023/04/26 07:19:48;;;;;;;6.88;2.53;;;;;;;5.27;100.00;100797.03;6141215;28;20118;-92
2023/04/26 07:22:50;;;;;;;5.07;2.28;;;;;;;5.30;100.00;100794.28;6119983;28;20047;-90
2023/04/26 07:25:52;;;;;;;9.00;2.30;;;;;;;5.26;100.00;100800.47;6106679;28;20166;-90
2023/04/26 07:28:55;;;;;;;8.05;2.75;;;;;;;5.16;100.00;100791.59;6123081;28;20039;-90
2023/04/26 07:31:57;;;;;;;9.30;2.97;;;;;;;5.20;100.00;100798.25;6099203;28;20051;-90
2023/04/26 07:35:00;;;;;;;8.15;2.63;;;;;;;5.16;100.00;100799.31;6118051;28;20399;-91
2023/04/26 07:38:02;;;;;;;8.65;2.45;;;;;;;5.26;100.00;100791.97;6111095;28;20077;-91
2023/04/26 07:41:04;;;;;;;3.80;1.90;;;;;;;5.25;100.00;100800.56;6130414;28;20060;-91
2023/04/26 07:44:06;;;;;;;7.18;2.30;;;;;;;5.31;100.00;100802.81;6134486;28;20040;-90
2023/04/26 07:47:14;;;;;;;6.50;2.13;;;;;;;5.38;100.00;100801.56;6123678;28;20521;-91
2023/04/26 07:50:16;;;;;;;7.70;2.38;;;;;;;5.54;100.00;100799.88;6131671;28;20051;-90
2023/04/26 07:53:18;;;;;;;5.30;2.40;;;;;;;5.60;100.00;100799.53;6130717;28;20047;-91
2023/04/26 07:56:20;;;;;;;4.10;2.50;;;;;;;5.65;100.00;100803.59;6123440;28;20518;-91
2023/04/26 07:59:23;;;;;;;7.47;2.58;;;;;;;5.79;100.00;100796.78;6128869;28;20713;-91
2023/04/26 08:02:24;;;;;;;4.03;2.10;;;;;;;5.89;100.00;100806.53;6108160;28;20520;-92
2023/04/26 08:05:44;;;;;;;6.38;2.00;;;;;;;5.94;100.00;100807.19;6128142;28;20447;-92
2023/04/26 08:08:49;;;;;;;7.30;2.13;;;;;;;5.98;100.00;100800.94;6132422;28;20068;-92
2023/04/26 08:11:51;;;;;;;5.25;2.05;;;;;;;6.15;100.00;100797.44;6132098;28;20047;-92
2023/04/26 08:14:53;;;;;;;9.15;2.15;;;;;;;6.28;100.00;100805.28;6135524;28;20043;-92
2023/04/26 08:17:55;;;;;;;8.70;2.92;;;;;;;6.40;100.00;100807.97;6129762;28;20054;-91
2023/04/26 08:20:57;;;;;;;5.65;2.70;;;;;;;6.56;100.00;100802.81;6120595;28;20051;-93
2023/04/26 08:23:59;;;;;;;4.15;2.42;;;;;;;6.73;100.00;100806.94;6126907;28;20044;-92
2023/04/26 08:27:01;;;;;;;9.18;2.33;;;;;;;6.86;100.00;100796.78;6105673;29;20048;-91
2023/04/26 08:30:04;;;;;;;8.32;1.95;;;;;;;6.93;100.00;100812.66;6121335;28;20043;-90
2023/04/26 08:33:06;;;;;;;5.80;2.42;;;;;;;6.93;100.00;100805.78;6114760;28;20426;-91
2023/04/26 08:36:08;;;;;;;5.72;2.20;;;;;;;6.90;100.00;100795.66;6118146;28;20299;-91
2023/04/26 08:39:11;;;;;;;6.85;2.13;;;;;;;7.11;100.00;100799.56;6130167;28;20528;-92
2023/04/26 08:42:15;;;;;;;6.78;2.30;;;;;;;7.32;100.00;100801.75;6120993;28;20051;-93
2023/04/26 08:45:21;;;;;;;4.30;2.17;;;;;;;7.48;100.00;100793.91;6121697;28;20043;-92
2023/04/26 08:48:23;;;;;;;8.68;2.63;;;;;;;7.88;100.00;100807.72;6127001;28;20446;-90
2023/04/26 08:51:30;;;;;;;3.97;1.90;;;;;;;8.03;100.00;100802.50;6124671;28;20554;-91
2023/04/26 08:54:33;;;;;;;4.93;2.20;;;;;;;8.09;100.00;100796.94;6122957;28;20044;-92
2023/04/26 08:57:35;;;;;;;7.80;2.33;;;;;;;8.01;100.00;100801.78;6126042;28;20253;-92
2023/04/26 09:00:37;;;;;;;6.57;2.13;;;;;;;8.04;100.00;100796.41;6117209;28;20050;-92
2023/04/26 09:03:39;;;;;;;5.03;2.00;;;;;;;7.87;100.00;100803.47;6119638;28;20046;-91
2023/04/26 09:06:42;;;;;;;10.50;2.85;;;;;;;7.97;100.00;100814.88;6136159;28;20034;-91
2023/04/26 09:09:47;;;;;;;6.80;1.95;;;;;;;8.15;100.00;100805.13;6140492;28;20406;-91
2023/04/26 09:12:52;;;;;;;3.00;1.65;;;;;;;8.38;100.00;100813.13;6128348;29;20087;-91
2023/04/26 09:15:54;;;;;;;5.85;1.90;;;;;;;8.46;100.00;100800.56;6136659;28;20745;-91
2023/04/26 09:18:57;;;;;;;2.75;1.55;;;;;;;8.40;100.00;100819.88;6125148;28;20047;-89
2023/04/26 09:22:00;;;;;;;5.40;1.60;;;;;;;8.40;100.00;100806.97;6117973;28;20047;-91
2023/04/26 09:25:03;;;;;;;5.25;1.83;;;;;;;8.63;100.00;100813.19;6125867;28;20590;-91
2023/04/26 09:28:20;;;;;;;3.58;1.50;;;;;;;8.60;100.00;100808.25;6131139;28;20043;-91
2023/04/26 09:31:38;;;;;;;3.67;1.75;;;;;;;8.73;100.00;100807.44;6141070;28;20052;-91
2023/04/26 09:34:46;;;;;;;5.82;1.70;;;;;;;8.99;100.00;100796.19;6118109;28;20134;-90
2023/04/26 09:38:00;;;;;;;3.67;1.75;;;;;;;9.04;100.00;100816.50;6134831;28;20130;-90
2023/04/26 09:41:12;;;;;;;2.20;1.70;;;;;;;8.99;100.00;100806.50;6131620;28;20126;-90
2023/04/26 09:44:22;;;;;;;5.47;1.80;;;;;;;8.92;100.00;100815.59;6128284;28;20054;-90
2023/04/26 09:47:23;;;;;;;4.43;1.58;;;;;;;8.68;100.00;100812.06;6140096;28;20047;-89
2023/04/26 09:50:32;;;;;;;3.95;1.60;;;;;;;8.65;100.00;100814.88;6130697;28;20142;-90
2023/04/26 09:53:44;;;;;;;4.10;1.77;;;;;;;8.90;100.00;100806.31;6133647;28;20454;-91
2023/04/26 09:56:58;;;;;;;2.40;1.50;;;;;;;8.92;100.00;100822.50;6136066;28;20077;-92
2023/04/26 10:00:08;;;;;;;2.88;1.42;;;;;;;8.95;100.00;100810.22;6119568;29;20039;-91
2023/04/26 10:03:11;;;;;;;4.63;1.83;;;;;;;8.99;100.00;100816.00;6100568;29;20154;-92
2023/04/26 10:06:14;;;;;;;6.30;2.00;;;;;;;9.03;100.00;100820.03;6131915;28;20038;-91
2023/04/26 10:09:16;;;;;;;3.55;1.83;;;;;;;9.11;100.00;100820.31;6130418;28;20738;-90
2023/04/26 10:12:19;;;;;;;2.85;1.70;;;;;;;9.25;100.00;100834.88;6128869;28;20469;-90
2023/04/26 10:15:21;;;;;;;4.82;1.77;;;;;;;9.47;100.00;100834.25;6135753;28;20447;-90
2023/04/26 10:18:23;;;;;;;4.18;1.67;;;;;;;9.51;100.00;100825.31;6136088;28;20050;-91
2023/04/26 10:21:30;;;;;;;2.42;1.67;;;;;;;9.70;100.00;100830.03;6100120;29;20501;-91
2023/04/26 10:24:34;;;;;;;2.67;1.80;;;;;;;9.60;100.00;100831.63;6104455;28;20190;-91
2023/04/26 10:27:42;;;;;;;4.15;1.67;;;;;;;9.35;100.00;100823.00;6140491;28;20194;-91
2023/04/26 10:30:58;;;;;;;4.72;1.75;;;;;;;9.10;100.00;100817.88;6137008;28;20157;-91
2023/04/26 10:34:19;;;;;;;3.92;1.60;;;;;;;9.18;100.00;100824.13;6129499;28;20406;-90
2023/04/26 10:37:21;;;;;;;4.13;1.70;;;;;;;9.45;100.00;100815.44;6121052;28;20056;-91
2023/04/26 10:40:39;;;;;;;5.70;1.95;;;;;;;9.88;100.00;100802.06;6134701;28;20036;-91
2023/04/26 10:43:41;;;;;;;4.78;2.03;;;;;;;10.08;100.00;100811.78;6132720;28;20577;-93
2023/04/26 10:46:51;;;;;;;2.92;1.70;;;;;;;9.89;100.00;100817.47;6121342;28;20043;-93
2023/04/26 10:50:10;;;;;;;5.45;2.45;;;;;;;9.43;100.00;100812.13;6132599;28;20035;-91
2023/04/26 10:53:12;;;;;;;3.08;1.55;;;;;;;9.31;100.00;100803.44;6126760;28;20071;-91
2023/04/26 10:56:23;;;;;;;6.25;2.00;;;;;;;9.40;100.00;100807.19;6113900;28;20491;-90
2023/04/26 10:59:24;;;;;;;4.15;1.73;;;;;;;9.49;100.00;100807.34;6135682;28;20431;-92
2023/04/26 11:03:05;;;;;;;4.13;1.83;;;;;;;10.06;100.00;100805.91;6118275;28;20044;-92
2023/04/26 11:06:14;;;;;;;2.67;1.33;;;;;;;10.48;96.85;100806.34;6136649;28;20039;-92
2023/04/26 11:09:38;;;;;;;2.53;1.58;;;;;;;10.68;96.51;100798.81;6130554;28;20058;-92
2023/04/26 11:13:00;;;;;;;6.47;1.90;;;;;;;10.67;91.96;100805.78;6118878;28;20155;-94
2023/04/26 11:16:04;;;;;;;3.00;1.80;;;;;;;10.78;95.08;100795.44;6136808;28;20047;-95
2023/04/26 11:19:08;;;;;;;2.83;1.55;;;;;;;10.64;92.71;100803.41;6133281;28;20094;-95
2023/04/26 11:22:10;;;;;;;4.28;1.60;;;;;;;10.84;88.19;100785.56;6120764;28;20051;-95
2023/04/26 11:25:13;;;;;;;3.55;1.67;;;;;;;10.67;87.87;100782.47;6135217;28;20086;-94
2023/04/26 11:28:15;;;;;;;3.03;1.65;;;;;;;10.40;96.30;100792.28;6134607;28;20040;-94
2023/04/26 11:31:17;;;;;;;2.35;1.83;;;;;;;10.30;96.30;100807.66;6133507;28;20051;-92
2023/04/26 11:34:37;;;;;;;4.07;1.60;;;;;;;10.17;91.08;100794.78;6137053;28;20052;-91
2023/04/26 11:37:38;;;;;;;4.70;2.08;;;;;;;10.10;94.32;100798.75;6135032;28;20091;-92
2023/04/26 11:40:40;;;;;;;3.78;1.88;;;;;;;9.85;96.83;100804.88;6131389;28;20047;-92
2023/04/26 11:43:43;;;;;;;2.50;1.83;;;;;;;9.75;100.00;100798.69;6117277;28;20425;-92
2023/04/26 11:46:47;;;;;;;5.68;1.98;;;;;;;9.96;100.00;100789.38;6130603;28;20043;-93
2023/04/26 11:49:50;;;;;;;3.00;2.13;;;;;;;10.09;100.00;100795.34;6115912;28;20383;-91
2023/04/26 11:52:53;;;;;;;4.88;2.00;;;;;;;10.30;100.00;100803.31;6115638;28;20044;-91
2023/04/26 11:55:55;;;;;;;4.07;1.60;;;;;;;10.28;93.89;100796.59;6112872;28;20473;-92
2023/04/26 11:58:58;;;;;;;5.72;1.85;;;;;;;10.57;98.47;100797.88;6130163;28;20048;-93
2023/04/26 12:02:05;;;;;;;5.72;2.17;;;;;;;10.75;90.17;100818.97;6130213;28;20043;-94
2023/04/26 12:05:08;;;;;;;3.40;1.63;;;;;;;10.73;94.03;100807.06;6120248;28;20054;-93
2023/04/26 12:08:10;;;;;;;3.45;2.00;;;;;;;10.79;90.96;100809.22;6130253;28;20217;-94
2023/04/26 12:11:15;;;;;;;4.10;1.77;;;;;;;10.81;84.97;100822.88;6121920;28;20043;-92
2023/04/26 12:14:17;;;;;;;3.45;1.88;;;;;;;10.82;88.07;100810.75;6122851;29;20105;-93
2023/04/26 12:17:19;;;;;;;2.30;1.48;;;;;;;11.11;88.94;100816.31;6115872;28;20039;-93
2023/04/26 12:20:30;;;;;;;2.90;1.80;;;;;;;11.18;83.32;100807.13;6116250;28;20162;-93
2023/04/26 12:23:38;;;;;;;4.53;1.80;;;;;;;11.40;86.70;100803.66;6110419;28;20054;-91
2023/04/26 12:26:46;;;;;;;3.70;1.88;;;;;;;11.29;83.66;100804.50;6132760;28;20066;-93
2023/04/26 12:29:48;;;;;;;3.15;1.90;;;;;;;11.35;84.57;100793.69;6129602;28;20131;-92
2023/04/26 12:32:49;;;;;;;4.55;2.15;;;;;;;11.40;83.70;100809.69;6134703;28;20058;-92
2023/04/26 12:35:52;;;;;;;3.83;1.88;;;;;;;11.37;81.94;100794.38;6125147;28;20406;-92
2023/04/26 12:38:55;;;;;;;3.85;1.70;;;;;;;11.40;83.90;100794.16;6124495;28;20054;-92
2023/04/26 12:41:57;;;;;;;4.38;1.88;;;;;;;11.46;79.25;100781.66;6129773;28;20469;-93
2023/04/26 12:45:00;;;;;;;5.75;1.88;;;;;;;11.84;82.96;100786.38;6133951;28;20074;-92
2023/04/26 12:48:01;;;;;;;3.33;1.75;;;;;;;12.26;72.65;100792.47;6135028;28;20050;-91
2023/04/26 12:51:04;;;;;;;3.22;1.67;;;;;;;12.43;73.42;100793.69;6123965;28;20075;-92
2023/04/26 12:54:06;;;;;;;4.22;1.60;;;;;;;12.33;69.92;100786.81;6119908;28;20035;-92
2023/04/26 12:57:08;;;;;;;4.70;2.17;;;;;;;12.07;78.53;100793.19;6148056;28;20485;-92
2023/04/26 13:00:13;;;;;;;3.70;2.15;;;;;;;11.79;78.12;100784.16;6119408;28;20043;-92
2023/04/26 13:03:15;;;;;;;4.25;2.05;;;;;;;11.61;70.26;100780.44;6141432;28;20039;-92
2023/04/26 13:06:17;;;;;;;3.28;1.73;;;;;;;11.52;68.43;100789.75;6134253;28;20122;-92
2023/04/26 13:09:20;;;;;;;3.15;2.22;;;;;;;11.53;69.57;100788.81;6130432;28;20051;-92
2023/04/26 13:12:22;;;;;;;3.47;1.90;;;;;;;12.01;70.73;100793.66;6140447;28;20486;-93
2023/04/26 13:15:25;;;;;;;4.60;1.98;;;;;;;12.05;68.45;100786.47;6139124;28;20063;-92
2023/04/26 13:18:27;;;;;;;5.82;2.00;;;;;;;12.13;72.46;100786.66;6137313;28;20185;-91
2023/04/26 13:21:29;;;;;;;1.90;1.70;;;;;;;11.89;71.22;100786.03;6128670;28;20052;-90
2023/04/26 13:24:31;;;;;;;4.22;1.88;;;;;;;11.21;68.63;100786.97;6132044;28;20054;-93
2023/04/26 13:27:33;;;;;;;3.45;2.10;;;;;;;10.77;75.61;100790.38;6123615;28;20043;-92
2023/04/26 13:30:35;;;;;;;4.63;2.22;;;;;;;10.30;72.50;100805.09;6121862;28;20043;-92
2023/04/26 13:33:37;;;;;;;4.47;2.22;;;;;;;9.99;81.00;100794.38;6138659;28;20043;-92
2023/04/26 13:36:40;;;;;;;3.38;2.30;;;;;;;9.86;88.81;100801.31;6131155;28;20494;-92
2023/04/26 13:39:42;;;;;;;4.68;2.15;;;;;;;9.78;86.84;100801.88;6098094;28;20274;-92
2023/04/26 13:42:44;;;;;;;4.65;1.88;;;;;;;9.80;88.85;100797.44;6132343;28;20394;-91
2023/04/26 13:45:46;;;;;;;5.22;2.10;;;;;;;9.71;92.31;100800.66;6132672;28;20039;-91
2023/04/26 13:48:48;;;;;;;3.38;1.95;;;;;;;9.82;98.28;100803.31;6135764;28;20035;-92
2023/04/26 13:51:50;;;;;;;5.03;2.42;;;;;;;10.01;94.37;100812.34;6126222;28;20499;-92
2023/04/26 13:54:52;;;;;;;3.53;2.10;;;;;;;10.02;91.29;100808.84;6127669;28;20055;-91
2023/04/26 13:57:55;;;;;;;2.80;1.92;;;;;;;9.98;91.30;100804.81;6127510;29;20517;-92
2023/04/26 14:00:57;;;;;;;2.65;2.00;;;;;;;9.90;95.58;100810.53;6135861;28;20048;-91
2023/04/26 14:03:59;;;;;;;2.50;2.30;;;;;;;9.69;98.17;100811.13;6131942;28;20043;-91
2023/04/26 14:07:01;;;;;;;3.17;1.98;;;;;;;9.53;98.62;100812.31;6107947;28;20074;-91
2023/04/26 14:10:03;;;;;;;4.63;2.25;;;;;;;9.25;100.00;100809.88;6135585;28;20051;-92
2023/04/26 14:13:05;;;;;;;3.65;2.20;;;;;;;9.16;100.00;100807.09;6124066;28;20048;-91